Time;durP1;ratioP1;P1;durP2;ratioP2;P2;SDS_P1;SDS_P2;PMS_P1;PMS_P2;Temp;Humidity;BMP_temperature;BMP_pressure;BME280_temperature;BME280_humidity;BME280_pressure;Samples;Min_cycle;Max_cycle;Signal;HPM_P1;HPM_P2
2024/02/05 00:01:37;;;;;;;22.35;4.30;;;11.50;99.90;;;;;;5016852;28;20041;-83
2024/02/05 00:04:04;;;;;;;30.90;4.85;;;11.50;99.90;;;;;;5015828;28;20489;-85
2024/02/05 00:06:30;;;;;;;22.90;4.30;;;11.40;99.90;;;;;;5013809;28;20034;-85
2024/02/05 00:08:57;;;;;;;33.92;6.22;;;11.50;99.90;;;;;;5013171;28;20038;-87
2024/02/05 00:11:23;;;;;;;28.70;6.00;;;11.40;99.90;;;;;;5013919;28;20036;-85
2024/02/05 00:13:48;;;;;;;22.40;4.68;;;11.40;99.90;;;;;;5013084;28;20109;-83
2024/02/05 00:16:14;;;;;;;31.65;6.28;;;11.40;99.90;;;;;;5013308;28;20037;-85
2024/02/05 00:18:40;;;;;;;27.35;6.47;;;11.40;99.90;;;;;;5014467;28;20415;-87
2024/02/05 00:21:06;;;;;;;25.15;5.57;;;11.40;99.90;;;;;;5014436;28;20034;-87
2024/02/05 00:23:32;;;;;;;28.42;5.82;;;11.40;99.90;;;;;;5013004;28;20133;-86
2024/02/05 00:25:57;;;;;;;30.50;6.00;;;11.40;99.90;;;;;;5012428;28;20057;-86
2024/02/05 00:28:23;;;;;;;23.42;4.53;;;11.30;99.90;;;;;;5012717;28;20053;-85
2024/02/05 00:30:49;;;;;;;28.15;6.15;;;11.30;99.90;;;;;;5013091;28;20014;-85
2024/02/05 00:33:14;;;;;;;23.25;5.03;;;11.30;99.90;;;;;;5012884;28;20033;-85
2024/02/05 00:35:40;;;;;;;25.27;5.03;;;11.30;99.90;;;;;;5012600;28;20029;-86
2024/02/05 00:38:07;;;;;;;26.85;5.10;;;11.30;99.90;;;;;;5012522;28;20065;-85
2024/02/05 00:40:33;;;;;;;27.73;5.63;;;11.30;99.90;;;;;;5014088;28;20021;-85
2024/02/05 00:42:59;;;;;;;38.00;5.80;;;11.30;99.90;;;;;;5014150;28;20490;-87
2024/02/05 00:45:25;;;;;;;28.75;5.90;;;11.20;99.90;;;;;;5014150;28;20044;-86
2024/02/05 00:47:50;;;;;;;25.83;5.50;;;11.20;99.90;;;;;;5011650;28;20577;-88
2024/02/05 00:50:16;;;;;;;30.50;6.75;;;11.20;99.90;;;;;;5012463;28;20021;-87
2024/02/05 00:52:42;;;;;;;42.20;7.05;;;11.20;99.90;;;;;;5012490;28;20033;-86
2024/02/05 00:55:08;;;;;;;35.83;5.93;;;11.20;99.90;;;;;;5013842;28;20377;-85
2024/02/05 00:57:34;;;;;;;27.55;7.07;;;11.20;99.90;;;;;;5013904;28;20037;-86
2024/02/05 01:00:00;;;;;;;26.48;5.47;;;11.20;99.90;;;;;;5013756;28;20036;-85
2024/02/05 01:02:26;;;;;;;29.13;5.28;;;11.20;99.90;;;;;;5013624;28;20045;-86
2024/02/05 01:04:51;;;;;;;28.33;6.25;;;11.10;99.90;;;;;;5013695;28;20474;-84
2024/02/05 01:07:18;;;;;;;26.50;6.63;;;11.10;99.90;;;;;;5013417;28;20037;-84
2024/02/05 01:09:44;;;;;;;28.98;5.45;;;11.10;99.90;;;;;;5012208;28;20022;-85
2024/02/05 01:12:10;;;;;;;30.42;5.45;;;11.10;99.90;;;;;;5012604;28;20022;-84
2024/02/05 01:14:36;;;;;;;21.73;5.38;;;11.10;99.90;;;;;;5012515;28;20022;-85
2024/02/05 01:17:02;;;;;;;26.08;5.32;;;11.10;99.90;;;;;;5013255;28;20041;-88
2024/02/05 01:19:28;;;;;;;27.92;5.40;;;11.00;99.90;;;;;;5013343;28;20026;-85
2024/02/05 01:21:54;;;;;;;28.63;6.22;;;11.00;99.90;;;;;;5013392;28;20570;-86
2024/02/05 01:24:19;;;;;;;24.45;4.90;;;11.00;99.90;;;;;;5013161;28;20117;-84
2024/02/05 01:26:45;;;;;;;27.52;6.38;;;11.00;99.90;;;;;;5013582;28;20064;-87
2024/02/05 01:29:11;;;;;;;29.02;5.05;;;11.00;99.90;;;;;;5013692;28;20026;-83
2024/02/05 01:31:37;;;;;;;25.73;5.93;;;11.00;99.90;;;;;;5012806;28;20125;-85
2024/02/05 01:34:04;;;;;;;26.60;4.97;;;10.90;99.90;;;;;;5013206;28;20022;-85
2024/02/05 01:36:29;;;;;;;32.05;7.32;;;10.90;99.90;;;;;;5012339;28;20048;-82
2024/02/05 01:38:55;;;;;;;27.38;5.93;;;10.90;99.90;;;;;;5012858;28;20034;-84
2024/02/05 01:41:21;;;;;;;43.00;6.50;;;10.90;99.90;;;;;;5012890;28;20033;-85
2024/02/05 01:43:47;;;;;;;27.30;5.55;;;10.80;99.90;;;;;;5013555;28;20022;-86
2024/02/05 01:46:16;;;;;;;23.48;5.15;;;10.80;99.90;;;;;;5012027;28;20053;-85
2024/02/05 01:48:43;;;;;;;32.00;5.70;;;10.80;99.90;;;;;;5012867;28;20030;-84
2024/02/05 01:51:10;;;;;;;34.80;6.03;;;10.80;99.90;;;;;;5013145;28;20084;-84
2024/02/05 01:53:37;;;;;;;27.92;5.72;;;10.80;99.90;;;;;;5013579;28;20033;-85
2024/02/05 01:56:04;;;;;;;31.48;6.20;;;10.70;99.90;;;;;;5012399;28;20021;-84
2024/02/05 01:58:30;;;;;;;23.90;5.93;;;10.80;99.90;;;;;;5013563;28;20041;-85
2024/02/05 02:00:56;;;;;;;32.63;7.28;;;10.70;99.90;;;;;;5011917;28;20033;-85
2024/02/05 02:03:22;;;;;;;27.73;5.65;;;10.70;99.90;;;;;;5013310;28;20026;-84
2024/02/05 02:05:48;;;;;;;34.38;5.88;;;10.70;99.90;;;;;;5013082;28;20109;-85
2024/02/05 02:08:17;;;;;;;25.92;5.47;;;10.60;99.90;;;;;;5012709;28;20033;-84
2024/02/05 02:10:46;;;;;;;33.63;6.20;;;10.60;99.90;;;;;;5013137;28;20030;-84
2024/02/05 02:13:11;;;;;;;29.03;5.47;;;10.50;99.90;;;;;;5012945;28;20026;-84
2024/02/05 02:15:37;;;;;;;23.98;5.35;;;10.50;99.90;;;;;;5013385;28;20585;-83
2024/02/05 02:18:06;;;;;;;27.57;5.40;;;10.40;99.90;;;;;;5012968;28;20080;-85
2024/02/05 02:20:46;;;;;;;34.53;8.43;;;10.40;99.90;;;;;;5013351;28;20545;-85
2024/02/05 02:23:29;;;;;;;29.13;6.45;;;10.30;99.90;;;;;;5012871;28;20049;-84
2024/02/05 02:25:55;;;;;;;33.63;6.57;;;10.30;99.90;;;;;;5018119;28;20104;-85
2024/02/05 02:28:21;;;;;;;32.08;5.85;;;10.30;99.90;;;;;;5016308;28;20026;-85
2024/02/05 02:30:49;;;;;;;34.22;7.38;;;10.30;99.90;;;;;;5015532;28;20017;-84
2024/02/05 02:33:47;;;;;;;33.30;6.50;;;10.20;99.90;;;;;;5015127;28;20025;-85
2024/02/05 02:36:21;;;;;;;32.88;5.97;;;10.20;99.90;;;;;;5017945;28;20033;-84
2024/02/05 02:39:03;;;;;;;;;;;10.10;99.90;;;;;;5015359;28;20026;-84
2024/02/05 02:41:34;;;;;;;30.00;6.93;;;10.10;99.90;;;;;;5016241;28;19949;-84
2024/02/05 02:44:01;;;;;;;32.80;7.30;;;10.10;99.90;;;;;;5015977;28;20029;-84
2024/02/05 02:46:28;;;;;;;33.10;7.47;;;10.10;99.90;;;;;;5014678;28;20042;-85
2024/02/05 02:48:54;;;;;;;36.43;7.00;;;10.00;99.90;;;;;;5014402;28;20450;-86
2024/02/05 02:51:19;;;;;;;39.83;7.17;;;10.10;99.90;;;;;;5016013;28;20061;-85
2024/02/05 02:53:45;;;;;;;31.40;6.70;;;10.00;99.90;;;;;;5016258;28;20022;-88
2024/02/05 02:56:11;;;;;;;28.87;7.27;;;10.00;99.90;;;;;;5014847;28;20037;-83
2024/02/05 02:58:36;;;;;;;39.95;7.85;;;10.10;99.90;;;;;;5015707;28;20030;-84
2024/02/05 03:01:03;;;;;;;34.07;6.80;;;10.10;99.90;;;;;;5014392;28;20040;-83
2024/02/05 03:03:29;;;;;;;30.65;7.57;;;10.10;99.90;;;;;;5015765;28;20030;-86
2024/02/05 03:05:55;;;;;;;31.60;7.20;;;10.10;99.90;;;;;;5015634;28;20084;-83
2024/02/05 03:08:21;;;;;;;30.75;7.07;;;10.10;99.90;;;;;;5014138;28;20490;-84
2024/02/05 03:10:46;;;;;;;31.38;7.10;;;10.20;99.90;;;;;;5014460;28;20437;-85
2024/02/05 03:13:12;;;;;;;33.78;7.15;;;10.20;99.90;;;;;;5015693;28;20109;-86
2024/02/05 03:15:38;;;;;;;27.63;6.53;;;10.20;99.90;;;;;;5014001;28;20036;-85
2024/02/05 03:18:04;;;;;;;34.75;7.63;;;10.20;99.90;;;;;;5015615;28;20030;-85
2024/02/05 03:20:39;;;;;;;35.17;8.43;;;10.20;99.90;;;;;;5015247;28;20080;-85
2024/02/05 03:23:06;;;;;;;28.80;7.20;;;10.20;99.90;;;;;;5015380;28;20018;-85
2024/02/05 03:25:33;;;;;;;30.25;6.93;;;10.20;99.90;;;;;;5015449;28;20109;-85
2024/02/05 03:28:02;;;;;;;37.38;8.90;;;10.30;99.90;;;;;;5013777;28;20113;-84
2024/02/05 03:30:32;;;;;;;36.37;7.47;;;10.30;99.90;;;;;;5014006;28;20029;-83
2024/02/05 03:32:59;;;;;;;36.17;8.52;;;10.30;99.90;;;;;;5014057;28;20029;-84
2024/02/05 03:35:25;;;;;;;44.67;9.07;;;10.30;99.90;;;;;;5013943;28;20029;-84
2024/02/05 03:37:51;;;;;;;35.83;8.20;;;10.30;99.90;;;;;;5014087;28;20064;-85
2024/02/05 03:40:17;;;;;;;34.38;7.82;;;10.30;99.90;;;;;;5015515;28;20053;-85
2024/02/05 03:42:42;;;;;;;36.63;7.00;;;10.30;99.90;;;;;;5015067;28;20496;-85
2024/02/05 03:45:08;;;;;;;29.27;7.03;;;10.40;99.90;;;;;;5013853;28;20022;-88
2024/02/05 03:47:34;;;;;;;28.63;6.63;;;10.40;99.90;;;;;;5014274;28;20077;-84
2024/02/05 03:50:01;;;;;;;32.78;7.63;;;10.30;99.90;;;;;;5013697;28;20049;-85
2024/02/05 03:52:26;;;;;;;26.20;6.28;;;10.40;99.90;;;;;;5013916;28;20021;-87
2024/02/05 03:54:52;;;;;;;30.20;7.38;;;10.40;99.90;;;;;;5013807;28;20033;-85
2024/02/05 03:57:19;;;;;;;38.45;8.82;;;10.40;99.90;;;;;;5014509;28;20414;-85
2024/02/05 03:59:45;;;;;;;30.98;6.68;;;10.40;99.90;;;;;;5015137;28;20025;-85
2024/02/05 04:02:11;;;;;;;30.17;6.57;;;10.40;99.90;;;;;;5014474;28;20025;-84
2024/02/05 04:04:37;;;;;;;29.27;7.35;;;10.40;99.90;;;;;;5013669;28;20052;-85
2024/02/05 04:07:03;;;;;;;26.80;7.38;;;10.40;99.90;;;;;;5015295;28;20032;-86
2024/02/05 04:09:29;;;;;;;31.65;7.32;;;10.40;99.90;;;;;;5014779;28;20101;-85
2024/02/05 04:11:55;;;;;;;35.95;8.82;;;10.30;99.90;;;;;;5014952;28;20032;-84
2024/02/05 04:14:20;;;;;;;30.55;6.63;;;10.40;99.90;;;;;;5013384;28;20393;-85
2024/02/05 04:16:48;;;;;;;29.45;7.65;;;10.40;99.90;;;;;;5012991;28;20364;-85
2024/02/05 04:19:14;;;;;;;34.42;8.82;;;10.30;99.90;;;;;;5014305;28;20548;-85
2024/02/05 04:21:40;;;;;;;33.95;7.82;;;10.30;99.90;;;;;;5014263;28;20030;-85
2024/02/05 04:24:05;;;;;;;33.72;8.43;;;10.30;99.90;;;;;;5014044;28;20396;-85
2024/02/05 04:26:31;;;;;;;33.17;7.90;;;10.30;99.90;;;;;;5014203;28;20030;-85
2024/02/05 04:28:57;;;;;;;33.58;7.75;;;10.30;99.90;;;;;;5013023;28;20478;-87
2024/02/05 04:31:22;;;;;;;38.60;8.97;;;10.30;99.90;;;;;;5012932;28;20092;-86
2024/02/05 04:33:49;;;;;;;32.80;7.45;;;10.30;99.90;;;;;;5012401;28;20029;-83
2024/02/05 04:36:15;;;;;;;29.08;8.93;;;10.30;99.90;;;;;;5013347;28;20064;-86
2024/02/05 04:38:42;;;;;;;27.80;8.30;;;10.30;99.90;;;;;;5013602;28;20038;-86
2024/02/05 04:41:11;;;;;;;27.15;8.43;;;10.30;99.90;;;;;;5012592;28;20022;-86
2024/02/05 04:43:38;;;;;;;36.90;9.00;;;10.30;99.90;;;;;;5013570;28;20060;-85
2024/02/05 04:46:07;;;;;;;33.63;7.38;;;10.30;99.90;;;;;;5012209;28;20510;-85
2024/02/05 04:48:32;;;;;;;26.75;6.85;;;10.30;99.90;;;;;;5013596;28;20030;-85
2024/02/05 04:50:59;;;;;;;34.35;7.60;;;10.30;99.90;;;;;;5012545;28;20022;-86
2024/02/05 04:53:25;;;;;;;33.60;7.10;;;10.30;99.90;;;;;;5013525;28;20463;-85
2024/02/05 04:55:51;;;;;;;29.87;8.03;;;10.30;99.90;;;;;;5013003;28;20064;-86
2024/02/05 04:58:17;;;;;;;31.05;6.38;;;10.20;99.90;;;;;;5014297;28;20115;-84
2024/02/05 05:00:42;;;;;;;32.22;7.38;;;10.30;99.90;;;;;;5014778;28;20026;-86
2024/02/05 05:03:08;;;;;;;36.90;7.03;;;10.20;99.90;;;;;;5013933;28;20046;-85
2024/02/05 05:05:33;;;;;;;35.85;6.95;;;10.20;99.90;;;;;;5012322;28;20022;-85
2024/02/05 05:07:59;;;;;;;29.95;7.53;;;10.20;99.90;;;;;;5013620;28;20026;-85
2024/02/05 05:10:25;;;;;;;34.43;8.63;;;10.20;99.90;;;;;;5013589;28;20060;-85
2024/02/05 05:12:50;;;;;;;39.40;7.00;;;10.20;99.90;;;;;;5012899;28;20041;-85
2024/02/05 05:15:16;;;;;;;35.80;6.80;;;10.20;99.90;;;;;;5016512;28;20466;-85
2024/02/05 05:17:43;;;;;;;37.72;7.75;;;10.20;99.90;;;;;;5020065;28;20036;-85
2024/02/05 05:20:10;;;;;;;32.97;6.40;;;10.20;99.90;;;;;;5014036;28;20091;-85
2024/02/05 05:22:36;;;;;;;37.97;6.63;;;10.20;99.90;;;;;;5013284;28;20072;-84
2024/02/05 05:25:02;;;;;;;28.08;7.47;;;10.20;99.90;;;;;;5013225;28;20034;-85
2024/02/05 05:27:27;;;;;;;30.35;6.78;;;10.20;99.90;;;;;;5013570;28;20528;-84
2024/02/05 05:29:53;;;;;;;25.35;5.78;;;10.20;99.90;;;;;;5012158;28;20026;-83
2024/02/05 05:32:18;;;;;;;36.17;7.25;;;10.20;99.90;;;;;;5013276;28;20087;-84
2024/02/05 05:34:44;;;;;;;31.57;6.97;;;10.20;99.90;;;;;;5012203;28;20026;-86
2024/02/05 05:37:10;;;;;;;35.40;6.87;;;10.20;99.90;;;;;;5012044;28;20045;-85
2024/02/05 05:39:35;;;;;;;29.00;6.50;;;10.20;99.90;;;;;;5013369;28;20032;-86
2024/02/05 05:42:01;;;;;;;31.95;7.03;;;10.20;99.90;;;;;;5013197;28;20030;-85
2024/02/05 05:44:27;;;;;;;26.80;6.17;;;10.20;99.90;;;;;;5012124;28;20037;-85
2024/02/05 05:46:55;;;;;;;29.02;5.20;;;10.20;99.90;;;;;;5012698;28;20046;-85
2024/02/05 05:49:20;;;;;;;32.63;6.33;;;10.20;99.90;;;;;;5013135;28;20036;-83
2024/02/05 05:51:46;;;;;;;25.50;5.85;;;10.20;99.90;;;;;;5012680;28;20034;-82
2024/02/05 05:54:12;;;;;;;26.27;6.35;;;10.20;99.90;;;;;;5011632;28;20026;-82
2024/02/05 05:56:37;;;;;;;37.03;6.22;;;10.20;99.90;;;;;;5011519;28;20030;-83
2024/02/05 05:59:03;;;;;;;32.60;6.33;;;10.20;99.90;;;;;;5012566;28;20041;-82
2024/02/05 06:01:29;;;;;;;23.90;5.20;;;10.20;99.90;;;;;;5012608;28;20463;-83
2024/02/05 06:03:54;;;;;;;30.20;7.18;;;10.20;99.90;;;;;;5011672;28;20033;-82
2024/02/05 06:06:20;;;;;;;26.48;6.00;;;10.20;99.90;;;;;;5014951;28;20024;-83
2024/02/05 06:08:47;;;;;;;28.85;7.10;;;10.20;99.90;;;;;;5036147;28;20017;-81
2024/02/05 06:11:12;;;;;;;27.67;6.13;;;10.20;99.90;;;;;;5036001;28;20108;-82
2024/02/05 06:13:38;;;;;;;32.50;6.90;;;10.20;99.90;;;;;;5030361;28;20088;-83
2024/02/05 06:16:10;;;;;;;31.58;6.43;;;10.20;99.90;;;;;;5031901;28;20021;-82
2024/02/05 06:18:36;;;;;;;30.63;7.00;;;10.20;99.90;;;;;;5035169;28;20136;-82
2024/02/05 06:21:02;;;;;;;33.53;7.22;;;10.20;99.90;;;;;;5022888;28;20108;-81
2024/02/05 06:23:28;;;;;;;26.25;5.38;;;10.10;99.90;;;;;;5032788;28;20022;-83
2024/02/05 06:25:54;;;;;;;26.47;5.80;;;10.20;99.90;;;;;;5031073;28;20022;-83
2024/02/05 06:28:19;;;;;;;31.23;7.40;;;10.10;99.90;;;;;;5031877;28;20366;-81
2024/02/05 06:30:49;;;;;;;23.08;5.72;;;10.10;99.90;;;;;;5018420;28;20034;-82
2024/02/05 06:33:18;;;;;;;21.58;5.78;;;10.10;99.90;;;;;;5026314;28;20533;-85
2024/02/05 06:35:44;;;;;;;25.10;7.07;;;10.10;99.90;;;;;;5015726;28;20463;-84
2024/02/05 06:38:12;;;;;;;31.03;6.47;;;10.10;99.90;;;;;;5030474;28;20151;-83
2024/02/05 06:40:38;;;;;;;24.50;6.22;;;10.10;99.90;;;;;;5014547;28;20102;-82
2024/02/05 06:43:06;;;;;;;33.77;6.37;;;10.10;99.90;;;;;;5016208;28;20478;-84
2024/02/05 06:45:35;;;;;;;31.43;7.27;;;10.10;99.90;;;;;;5016102;28;20061;-83
2024/02/05 06:48:01;;;;;;;25.88;6.07;;;10.10;99.90;;;;;;5015299;28;20132;-83
2024/02/05 06:50:27;;;;;;;28.40;5.95;;;10.10;99.90;;;;;;5015499;28;20438;-82
2024/02/05 06:52:52;;;;;;;24.10;6.60;;;10.10;99.90;;;;;;5014826;28;20026;-83
2024/02/05 06:55:18;;;;;;;36.10;6.80;;;10.10;99.90;;;;;;5014145;28;20057;-83
2024/02/05 06:57:44;;;;;;;36.10;7.73;;;10.10;99.90;;;;;;5014323;28;20176;-83
2024/02/05 07:00:12;;;;;;;28.07;5.90;;;10.10;99.90;;;;;;5024461;28;20024;-83
2024/02/05 07:02:38;;;;;;;27.47;5.67;;;10.10;99.90;;;;;;5024855;28;20042;-84
2024/02/05 07:05:04;;;;;;;37.13;6.95;;;10.10;99.90;;;;;;5024627;28;20017;-85
2024/02/05 07:07:30;;;;;;;32.13;6.88;;;10.00;99.90;;;;;;5015573;28;20029;-84
2024/02/05 07:09:55;;;;;;;28.20;6.07;;;10.00;99.90;;;;;;5015515;28;20022;-83
2024/02/05 07:12:21;;;;;;;35.03;7.17;;;10.00;99.90;;;;;;5015524;28;20474;-82
2024/02/05 07:14:47;;;;;;;27.30;6.13;;;10.00;99.90;;;;;;5015283;28;20064;-83
2024/02/05 07:17:16;;;;;;;23.90;5.83;;;10.10;99.90;;;;;;5014668;28;20030;-83
2024/02/05 07:19:41;;;;;;;32.83;6.33;;;10.00;99.90;;;;;;5014603;28;20042;-83
2024/02/05 07:22:08;;;;;;;20.17;5.65;;;10.00;99.90;;;;;;5014418;28;20021;-82
2024/02/05 07:24:34;;;;;;;31.23;6.93;;;10.00;99.90;;;;;;5013939;28;20030;-83
2024/02/05 07:27:03;;;;;;;26.43;6.40;;;10.00;99.90;;;;;;5015006;28;20026;-81
2024/02/05 07:29:29;;;;;;;34.70;7.22;;;10.00;99.90;;;;;;5014962;28;20022;-84
2024/02/05 07:31:55;;;;;;;35.88;8.73;;;10.00;99.90;;;;;;5015019;28;20455;-82
2024/02/05 07:34:21;;;;;;;32.87;7.40;;;10.00;99.90;;;;;;5014996;28;20065;-83
2024/02/05 07:36:47;;;;;;;35.20;5.90;;;10.00;99.90;;;;;;5013768;28;20018;-87
2024/02/05 07:39:13;;;;;;;31.27;6.75;;;10.00;99.90;;;;;;5015605;28;20053;-82
2024/02/05 07:41:39;;;;;;;28.60;6.47;;;10.00;99.90;;;;;;5015612;28;20025;-83
2024/02/05 07:44:05;;;;;;;26.60;6.93;;;10.00;99.90;;;;;;5013757;28;20104;-83
2024/02/05 07:46:30;;;;;;;38.80;6.95;;;10.00;99.90;;;;;;5014687;28;20510;-83
2024/02/05 07:48:57;;;;;;;35.70;6.53;;;10.00;99.90;;;;;;5015011;28;20026;-82
2024/02/05 07:51:23;;;;;;;22.07;6.50;;;10.00;99.90;;;;;;5015227;28;20101;-85
2024/02/05 07:53:49;;;;;;;29.43;7.17;;;10.00;99.90;;;;;;5013585;28;20430;-84
2024/02/05 07:56:15;;;;;;;37.53;7.93;;;10.00;99.90;;;;;;5014509;28;20037;-84
2024/02/05 07:58:41;;;;;;;33.05;6.80;;;10.00;99.90;;;;;;5014670;28;20030;-83
2024/02/05 08:01:07;;;;;;;30.38;6.45;;;10.00;99.90;;;;;;5013649;28;20018;-83
2024/02/05 08:03:35;;;;;;;36.57;8.67;;;10.00;99.90;;;;;;5018370;28;20030;-84
2024/02/05 08:06:04;;;;;;;29.50;7.20;;;10.00;99.90;;;;;;5021403;28;20082;-83
2024/02/05 08:08:29;;;;;;;42.17;7.32;;;10.00;99.90;;;;;;5017377;28;20029;-83
2024/02/05 08:10:56;;;;;;;34.60;6.45;;;10.00;99.90;;;;;;5017366;28;20022;-84
2024/02/05 08:13:21;;;;;;;28.57;6.70;;;10.00;99.90;;;;;;5016573;28;20018;-81
2024/02/05 08:15:47;;;;;;;29.67;6.28;;;10.00;99.90;;;;;;5016058;28;20021;-83
2024/02/05 08:18:12;;;;;;;33.10;7.73;;;10.00;99.90;;;;;;5014454;28;20600;-82
2024/02/05 08:20:38;;;;;;;29.30;7.97;;;10.00;99.90;;;;;;5014995;28;20033;-84
2024/02/05 08:23:04;;;;;;;29.27;6.40;;;10.00;99.90;;;;;;5014318;28;20083;-83
2024/02/05 08:25:30;;;;;;;21.52;5.63;;;10.00;99.90;;;;;;5014026;28;20032;-83
2024/02/05 08:27:57;;;;;;;36.77;7.57;;;10.00;99.90;;;;;;5013363;28;20445;-82
2024/02/05 08:30:22;;;;;;;31.67;7.67;;;10.00;99.90;;;;;;5013869;28;20036;-83
2024/02/05 08:32:48;;;;;;;21.50;5.45;;;10.00;99.90;;;;;;5014010;28;20101;-84
2024/02/05 08:35:14;;;;;;;28.38;6.10;;;10.00;99.90;;;;;;5013755;28;20033;-82
2024/02/05 08:37:39;;;;;;;22.08;6.18;;;10.00;99.90;;;;;;5013766;28;20030;-84
2024/02/05 08:40:09;;;;;;;32.17;7.57;;;10.00;99.90;;;;;;5014133;28;20022;-83
2024/02/05 08:42:36;;;;;;;30.13;8.00;;;10.00;99.90;;;;;;5013921;28;20022;-84
2024/02/05 08:45:02;;;;;;;32.43;8.03;;;10.00;99.90;;;;;;5013799;28;20470;-83
2024/02/05 08:47:28;;;;;;;35.43;8.13;;;10.00;99.90;;;;;;5013374;28;20052;-83
2024/02/05 08:49:53;;;;;;;30.50;7.47;;;10.00;99.90;;;;;;5013577;28;20026;-82
2024/02/05 08:52:22;;;;;;;36.63;8.00;;;10.00;99.90;;;;;;5012321;28;20022;-83
2024/02/05 08:54:48;;;;;;;21.50;6.75;;;10.00;99.90;;;;;;5013559;28;20022;-82
2024/02/05 08:57:14;;;;;;;32.58;7.93;;;10.10;99.90;;;;;;5012370;28;20025;-83
2024/02/05 08:59:40;;;;;;;35.25;7.55;;;10.10;99.90;;;;;;5012551;28;20041;-86
2024/02/05 09:02:06;;;;;;;32.95;8.55;;;10.10;99.90;;;;;;5013642;28;20057;-86
2024/02/05 09:04:32;;;;;;;38.13;9.35;;;10.10;99.90;;;;;;5013369;28;20135;-84
2024/02/05 09:06:58;;;;;;;47.85;10.18;;;10.10;99.90;;;;;;5013863;28;20523;-85
2024/02/05 09:09:23;;;;;;;32.20;10.65;;;10.10;99.90;;;;;;5013831;28;20026;-83
2024/02/05 09:11:49;;;;;;;34.20;11.53;;;10.10;99.90;;;;;;5013323;28;20057;-83
2024/02/05 09:14:15;;;;;;;32.83;9.73;;;10.10;99.90;;;;;;5012212;28;20021;-84
2024/02/05 09:16:40;;;;;;;27.77;12.00;;;10.10;99.90;;;;;;5013354;28;20076;-83
2024/02/05 09:19:06;;;;;;;35.03;12.10;;;10.10;99.90;;;;;;5013347;28;20390;-82
2024/02/05 09:21:31;;;;;;;39.38;11.43;;;10.00;99.90;;;;;;5013252;28;20029;-83
2024/02/05 09:23:57;;;;;;;38.47;11.90;;;10.00;99.90;;;;;;5013461;28;20022;-85
2024/02/05 09:26:23;;;;;;;33.67;10.68;;;10.10;99.90;;;;;;5014299;28;20026;-83
2024/02/05 09:28:48;;;;;;;32.40;10.60;;;10.10;99.90;;;;;;5013371;28;20022;-86
2024/02/05 09:31:14;;;;;;;35.70;10.00;;;10.10;99.90;;;;;;5013247;28;20045;-83
2024/02/05 09:33:40;;;;;;;34.40;11.93;;;10.10;99.90;;;;;;5011539;28;20367;-83
2024/02/05 09:36:06;;;;;;;30.83;9.45;;;10.20;99.90;;;;;;5012042;28;20021;-83
2024/02/05 09:38:32;;;;;;;36.95;9.30;;;10.20;99.90;;;;;;5013648;28;20022;-84
2024/02/05 09:41:05;;;;;;;37.15;10.40;;;10.20;99.90;;;;;;5015976;28;20041;-85
2024/02/05 09:43:32;;;;;;;27.17;10.45;;;10.20;99.90;;;;;;5015786;28;20029;-83
2024/02/05 09:46:04;;;;;;;29.00;9.82;;;10.20;99.90;;;;;;5017349;28;20025;-83
2024/02/05 09:48:34;;;;;;;31.70;9.43;;;10.20;99.90;;;;;;5016494;28;20069;-84
2024/02/05 09:51:04;;;;;;;30.38;8.40;;;10.20;99.90;;;;;;5017212;28;20478;-83
2024/02/05 09:53:32;;;;;;;28.27;9.27;;;10.10;99.90;;;;;;5015472;28;20037;-82
2024/02/05 09:55:58;;;;;;;31.85;8.82;;;10.20;99.90;;;;;;5016840;28;20076;-83
2024/02/05 09:58:24;;;;;;;28.52;8.73;;;10.20;99.90;;;;;;5015949;28;20026;-86
2024/02/05 10:00:51;;;;;;;29.95;9.10;;;10.20;99.90;;;;;;5016068;28;20029;-85
2024/02/05 10:03:17;;;;;;;29.40;7.68;;;10.20;99.90;;;;;;5016801;28;20536;-84
2024/02/05 10:05:46;;;;;;;32.50;6.72;;;10.20;99.90;;;;;;5016675;28;20026;-85
2024/02/05 10:08:13;;;;;;;25.38;7.40;;;10.20;99.90;;;;;;5016041;28;20108;-82
2024/02/05 10:10:42;;;;;;;22.70;7.72;;;10.20;99.90;;;;;;5016996;28;20026;-87
2024/02/05 10:13:09;;;;;;;26.25;6.85;;;10.20;99.90;;;;;;5016724;28;20026;-83
2024/02/05 10:15:35;;;;;;;28.67;7.25;;;10.30;99.90;;;;;;5017203;28;20033;-84
2024/02/05 10:18:01;;;;;;;25.27;6.43;;;10.30;99.90;;;;;;5016374;28;20034;-83
2024/02/05 10:20:33;;;;;;;24.23;6.70;;;10.30;99.90;;;;;;5017041;28;20477;-84
2024/02/05 10:22:58;;;;;;;26.55;6.13;;;10.30;99.90;;;;;;5016564;28;20029;-83
2024/02/05 10:25:26;;;;;;;21.90;5.85;;;10.40;99.90;;;;;;5016568;28;20382;-86
2024/02/05 10:28:00;;;;;;;20.25;5.30;;;10.40;99.90;;;;;;5015042;28;20041;-84
2024/02/05 10:30:28;;;;;;;22.10;5.03;;;10.40;99.90;;;;;;5016536;28;20034;-83
2024/02/05 10:33:00;;;;;;;33.45;6.90;;;10.50;99.90;;;;;;5014868;28;20032;-84
2024/02/05 10:35:28;;;;;;;20.08;5.20;;;10.50;99.90;;;;;;5014872;28;20033;-84
2024/02/05 10:38:10;;;;;;;21.77;5.43;;;10.50;99.90;;;;;;5014679;28;20490;-84
2024/02/05 10:40:36;;;;;;;25.08;5.97;;;10.60;99.90;;;;;;5016159;28;20025;-83
2024/02/05 10:43:04;;;;;;;21.40;5.10;;;10.60;99.90;;;;;;5016459;28;20052;-83
2024/02/05 10:45:31;;;;;;;26.63;5.40;;;10.60;99.90;;;;;;5016145;28;20089;-82
2024/02/05 10:47:56;;;;;;;26.08;5.50;;;10.60;99.90;;;;;;5015284;28;20045;-84
2024/02/05 10:50:22;;;;;;;24.95;5.30;;;10.60;99.90;;;;;;5015359;28;20149;-83
2024/02/05 10:52:48;;;;;;;20.10;5.18;;;10.60;99.90;;;;;;5018904;28;20029;-86
2024/02/05 10:55:15;;;;;;;18.88;4.90;;;10.60;99.90;;;;;;5016510;28;20102;-84
2024/02/05 10:57:43;;;;;;;23.35;4.95;;;10.60;99.90;;;;;;5015337;28;20079;-83
2024/02/05 11:00:10;;;;;;;29.85;5.75;;;10.60;99.90;;;;;;5015508;28;20556;-86
2024/02/05 11:02:41;;;;;;;30.50;6.75;;;10.60;99.90;;;;;;5014565;28;20056;-83
2024/02/05 11:05:09;;;;;;;31.70;6.18;;;10.60;99.90;;;;;;5015363;28;20061;-86
2024/02/05 11:07:42;;;;;;;27.50;6.18;;;10.60;99.90;;;;;;5015704;28;20022;-83
2024/02/05 11:10:08;;;;;;;30.90;5.57;;;10.60;99.90;;;;;;5015650;28;20026;-84
2024/02/05 11:12:37;;;;;;;26.00;6.32;;;10.60;99.90;;;;;;5015281;28;20024;-83
2024/02/05 11:15:07;;;;;;;31.85;6.18;;;10.70;99.90;;;;;;5015162;28;20351;-83
2024/02/05 11:17:35;;;;;;;25.48;4.88;;;10.70;99.90;;;;;;5015176;28;20018;-84
2024/02/05 11:20:08;;;;;;;30.95;6.82;;;10.70;99.90;;;;;;5015234;28;20022;-84
2024/02/05 11:22:37;;;;;;;27.80;6.77;;;10.70;99.90;;;;;;5015534;28;20041;-83
2024/02/05 11:25:04;;;;;;;27.95;5.88;;;10.80;99.90;;;;;;5014187;28;20272;-84
2024/02/05 11:27:31;;;;;;;25.42;5.60;;;10.80;99.90;;;;;;5014968;28;20370;-83
2024/02/05 11:29:56;;;;;;;22.58;5.47;;;10.90;99.90;;;;;;5014020;28;20045;-83
2024/02/05 11:32:30;;;;;;;23.40;5.88;;;11.00;99.90;;;;;;5015106;28;20478;-84
2024/02/05 11:34:56;;;;;;;24.63;5.78;;;11.00;99.90;;;;;;5014049;28;20375;-84
2024/02/05 11:37:24;;;;;;;23.73;5.97;;;11.10;99.80;;;;;;5013838;28;20022;-83
2024/02/05 11:39:53;;;;;;;25.40;5.18;;;11.10;99.50;;;;;;5013722;28;20034;-82
2024/02/05 11:42:19;;;;;;;22.65;6.57;;;11.20;99.40;;;;;;5015004;28;20010;-84
2024/02/05 11:44:52;;;;;;;22.05;5.95;;;11.20;99.00;;;;;;5014644;28;20029;-82
2024/02/05 11:47:18;;;;;;;24.83;6.25;;;11.20;99.20;;;;;;5013022;28;20371;-83
2024/02/05 11:49:44;;;;;;;22.30;5.20;;;11.30;99.30;;;;;;5014848;28;20032;-85
2024/02/05 11:52:10;;;;;;;22.85;6.47;;;11.40;99.00;;;;;;5014552;28;20030;-87
2024/02/05 11:54:36;;;;;;;26.58;5.82;;;11.40;98.70;;;;;;5013609;28;20121;-86
2024/02/05 11:57:02;;;;;;;24.40;6.13;;;11.40;98.30;;;;;;5014860;28;20044;-84
2024/02/05 11:59:28;;;;;;;26.70;5.65;;;11.50;98.40;;;;;;5013255;28;20101;-84
2024/02/05 12:01:54;;;;;;;28.30;7.38;;;11.60;98.30;;;;;;5014833;28;20022;-85
2024/02/05 12:04:20;;;;;;;34.28;6.80;;;11.60;97.80;;;;;;5013441;28;20108;-84
2024/02/05 12:06:46;;;;;;;24.30;6.13;;;11.70;97.80;;;;;;5014642;28;20026;-82
2024/02/05 12:09:14;;;;;;;20.33;5.97;;;11.70;97.80;;;;;;5014416;28;20045;-86
2024/02/05 12:11:39;;;;;;;31.30;6.80;;;11.80;97.70;;;;;;5013296;28;20022;-83
2024/02/05 12:14:10;;;;;;;26.88;6.55;;;11.90;97.40;;;;;;5014298;28;20029;-84
2024/02/05 12:16:37;;;;;;;19.13;4.78;;;11.90;96.90;;;;;;5014177;28;20577;-85
2024/02/05 12:19:03;;;;;;;25.98;5.75;;;12.00;97.00;;;;;;5013033;28;20038;-84
2024/02/05 12:21:31;;;;;;;21.95;5.85;;;12.00;96.70;;;;;;5012853;28;20022;-84
2024/02/05 12:23:58;;;;;;;26.65;6.15;;;12.30;97.10;;;;;;5013067;28;20544;-86
2024/02/05 12:26:25;;;;;;;18.85;6.03;;;12.60;95.90;;;;;;5013219;28;20389;-83
2024/02/05 12:28:52;;;;;;;26.30;5.82;;;12.50;94.90;;;;;;5012735;28;20022;-86
2024/02/05 12:31:24;;;;;;;22.27;5.20;;;12.50;94.60;;;;;;5012731;28;20109;-84
2024/02/05 12:33:59;;;;;;;30.08;6.22;;;12.30;94.30;;;;;;5014215;28;20029;-86